sensor_id;sensor_type;location;lat;lon;timestamp;temperature;humidity
15625;DHT22;7912;51.376;6.126;2023-06-10T00:00:58;25.70;75.80
15625;DHT22;7912;51.376;6.126;2023-06-10T00:03:26;25.70;76.00
15625;DHT22;7912;51.376;6.126;2023-06-10T00:05:54;25.60;76.30
15625;DHT22;7912;51.376;6.126;2023-06-10T00:08:21;25.60;76.40
15625;DHT22;7912;51.376;6.126;2023-06-10T00:10:48;25.50;76.60
15625;DHT22;7912;51.376;6.126;2023-06-10T00:13:16;25.50;77.00
15625;DHT22;7912;51.376;6.126;2023-06-10T00:15:47;25.40;77.00
15625;DHT22;7912;51.376;6.126;2023-06-10T00:18:14;25.40;77.20
15625;DHT22;7912;51.376;6.126;2023-06-10T00:20:43;25.30;77.30
15625;DHT22;7912;51.376;6.126;2023-06-10T00:23:10;25.30;77.60
15625;DHT22;7912;51.376;6.126;2023-06-10T00:25:38;25.20;77.60
15625;DHT22;7912;51.376;6.126;2023-06-10T00:28:05;25.20;78.00
15625;DHT22;7912;51.376;6.126;2023-06-10T00:30:33;25.20;78.40
15625;DHT22;7912;51.376;6.126;2023-06-10T00:33:01;25.10;78.30
15625;DHT22;7912;51.376;6.126;2023-06-10T00:35:28;25.10;78.70
15625;DHT22;7912;51.376;6.126;2023-06-10T00:37:55;25.00;78.80
15625;DHT22;7912;51.376;6.126;2023-06-10T00:40:23;25.00;79.10
15625;DHT22;7912;51.376;6.126;2023-06-10T00:42:50;24.90;79.40
15625;DHT22;7912;51.376;6.126;2023-06-10T00:45:18;24.90;79.60
15625;DHT22;7912;51.376;6.126;2023-06-10T00:47:45;24.90;79.80
15625;DHT22;7912;51.376;6.126;2023-06-10T00:50:13;24.80;80.00
15625;DHT22;7912;51.376;6.126;2023-06-10T00:52:59;24.80;80.30
15625;DHT22;7912;51.376;6.126;2023-06-10T00:59:11;24.70;80.90
15625;DHT22;7912;51.376;6.126;2023-06-10T01:01:38;24.60;80.60
15625;DHT22;7912;51.376;6.126;2023-06-10T01:04:06;24.60;81.20
15625;DHT22;7912;51.376;6.126;2023-06-10T01:10:43;24.50;82.10
15625;DHT22;7912;51.376;6.126;2023-06-10T01:13:18;24.50;81.50
15625;DHT22;7912;51.376;6.126;2023-06-10T01:15:51;24.40;81.50
15625;DHT22;7912;51.376;6.126;2023-06-10T01:18:19;24.30;82.50
15625;DHT22;7912;51.376;6.126;2023-06-10T01:20:46;24.30;82.50
15625;DHT22;7912;51.376;6.126;2023-06-10T01:23:17;24.20;82.40
15625;DHT22;7912;51.376;6.126;2023-06-10T01:25:49;24.20;82.90
15625;DHT22;7912;51.376;6.126;2023-06-10T01:28:36;24.20;83.50
15625;DHT22;7912;51.376;6.126;2023-06-10T01:31:32;24.10;83.40
15625;DHT22;7912;51.376;6.126;2023-06-10T01:34:11;24.00;84.50
15625;DHT22;7912;51.376;6.126;2023-06-10T01:36:41;24.00;84.80
15625;DHT22;7912;51.376;6.126;2023-06-10T01:39:14;23.90;85.20
15625;DHT22;7912;51.376;6.126;2023-06-10T01:41:43;23.90;85.80
15625;DHT22;7912;51.376;6.126;2023-06-10T01:44:11;23.80;86.20
15625;DHT22;7912;51.376;6.126;2023-06-10T01:46:39;23.70;86.50
15625;DHT22;7912;51.376;6.126;2023-06-10T01:49:06;23.70;87.00
15625;DHT22;7912;51.376;6.126;2023-06-10T01:51:34;23.60;87.30
15625;DHT22;7912;51.376;6.126;2023-06-10T01:54:01;23.60;87.80
15625;DHT22;7912;51.376;6.126;2023-06-10T01:56:29;23.60;88.20
15625;DHT22;7912;51.376;6.126;2023-06-10T01:58:56;23.50;88.70
15625;DHT22;7912;51.376;6.126;2023-06-10T02:01:26;23.40;88.70
15625;DHT22;7912;51.376;6.126;2023-06-10T02:03:53;23.40;89.40
15625;DHT22;7912;51.376;6.126;2023-06-10T02:06:21;23.40;89.50
15625;DHT22;7912;51.376;6.126;2023-06-10T02:08:48;23.30;90.00
15625;DHT22;7912;51.376;6.126;2023-06-10T02:11:16;23.30;90.10
15625;DHT22;7912;51.376;6.126;2023-06-10T02:13:43;23.20;90.30
15625;DHT22;7912;51.376;6.126;2023-06-10T02:16:10;23.20;90.40
15625;DHT22;7912;51.376;6.126;2023-06-10T02:18:41;23.10;90.60
15625;DHT22;7912;51.376;6.126;2023-06-10T02:21:10;23.00;91.00
15625;DHT22;7912;51.376;6.126;2023-06-10T02:23:37;23.00;91.00
15625;DHT22;7912;51.376;6.126;2023-06-10T02:26:05;23.00;91.20
15625;DHT22;7912;51.376;6.126;2023-06-10T02:28:32;22.90;91.20
15625;DHT22;7912;51.376;6.126;2023-06-10T02:31:00;22.90;91.60
15625;DHT22;7912;51.376;6.126;2023-06-10T02:33:27;22.80;91.70
15625;DHT22;7912;51.376;6.126;2023-06-10T02:35:55;22.80;91.80
15625;DHT22;7912;51.376;6.126;2023-06-10T02:38:23;22.80;92.10
15625;DHT22;7912;51.376;6.126;2023-06-10T02:40:50;22.70;92.20
15625;DHT22;7912;51.376;6.126;2023-06-10T02:43:18;22.70;92.50
15625;DHT22;7912;51.376;6.126;2023-06-10T02:45:45;22.60;92.60
15625;DHT22;7912;51.376;6.126;2023-06-10T02:48:13;22.60;92.80
15625;DHT22;7912;51.376;6.126;2023-06-10T02:50:41;22.60;92.90
15625;DHT22;7912;51.376;6.126;2023-06-10T02:53:08;22.50;93.10
15625;DHT22;7912;51.376;6.126;2023-06-10T02:55:35;22.50;93.30
15625;DHT22;7912;51.376;6.126;2023-06-10T02:58:03;22.50;93.50
15625;DHT22;7912;51.376;6.126;2023-06-10T03:00:30;22.40;93.80
15625;DHT22;7912;51.376;6.126;2023-06-10T03:02:58;22.40;93.90
15625;DHT22;7912;51.376;6.126;2023-06-10T03:05:29;22.40;94.00
15625;DHT22;7912;51.376;6.126;2023-06-10T03:07:57;22.30;94.20
15625;DHT22;7912;51.376;6.126;2023-06-10T03:10:24;22.30;94.30
15625;DHT22;7912;51.376;6.126;2023-06-10T03:12:52;22.30;94.30
15625;DHT22;7912;51.376;6.126;2023-06-10T03:15:20;22.20;94.30
15625;DHT22;7912;51.376;6.126;2023-06-10T03:17:48;22.20;94.60
15625;DHT22;7912;51.376;6.126;2023-06-10T03:20:16;22.20;94.60
15625;DHT22;7912;51.376;6.126;2023-06-10T03:22:43;22.10;94.80
15625;DHT22;7912;51.376;6.126;2023-06-10T03:25:13;22.10;94.90
15625;DHT22;7912;51.376;6.126;2023-06-10T03:27:42;22.10;95.30
15625;DHT22;7912;51.376;6.126;2023-06-10T03:30:11;22.10;95.40
15625;DHT22;7912;51.376;6.126;2023-06-10T03:32:40;22.10;95.50
15625;DHT22;7912;51.376;6.126;2023-06-10T03:35:08;22.10;95.50
15625;DHT22;7912;51.376;6.126;2023-06-10T03:37:36;22.00;95.70
15625;DHT22;7912;51.376;6.126;2023-06-10T03:40:03;22.00;95.80
15625;DHT22;7912;51.376;6.126;2023-06-10T03:42:32;22.00;95.80
15625;DHT22;7912;51.376;6.126;2023-06-10T03:45:00;22.00;96.20
15625;DHT22;7912;51.376;6.126;2023-06-10T03:47:37;22.00;96.20
15625;DHT22;7912;51.376;6.126;2023-06-10T03:50:05;22.00;96.60
15625;DHT22;7912;51.376;6.126;2023-06-10T03:52:33;22.00;96.40
15625;DHT22;7912;51.376;6.126;2023-06-10T03:55:01;21.90;96.60
15625;DHT22;7912;51.376;6.126;2023-06-10T03:57:32;21.90;96.60
15625;DHT22;7912;51.376;6.126;2023-06-10T03:59:59;21.90;96.60
15625;DHT22;7912;51.376;6.126;2023-06-10T04:02:27;21.90;97.00
15625;DHT22;7912;51.376;6.126;2023-06-10T04:04:55;21.90;97.10
15625;DHT22;7912;51.376;6.126;2023-06-10T04:07:22;21.90;97.20
15625;DHT22;7912;51.376;6.126;2023-06-10T04:09:50;21.90;97.40
15625;DHT22;7912;51.376;6.126;2023-06-10T04:12:18;21.90;97.50
15625;DHT22;7912;51.376;6.126;2023-06-10T04:14:45;21.90;97.70
15625;DHT22;7912;51.376;6.126;2023-06-10T04:17:12;21.90;97.90
15625;DHT22;7912;51.376;6.126;2023-06-10T04:19:40;21.90;97.90
15625;DHT22;7912;51.376;6.126;2023-06-10T04:22:07;21.90;98.10
15625;DHT22;7912;51.376;6.126;2023-06-10T04:24:34;21.90;98.20
15625;DHT22;7912;51.376;6.126;2023-06-10T04:27:02;21.90;98.40
15625;DHT22;7912;51.376;6.126;2023-06-10T04:29:30;22.00;98.40
15625;DHT22;7912;51.376;6.126;2023-06-10T04:31:57;21.90;98.60
15625;DHT22;7912;51.376;6.126;2023-06-10T04:34:25;22.00;98.80
15625;DHT22;7912;51.376;6.126;2023-06-10T04:36:52;22.00;98.90
15625;DHT22;7912;51.376;6.126;2023-06-10T04:39:20;22.00;99.00
15625;DHT22;7912;51.376;6.126;2023-06-10T04:41:47;22.00;99.10
15625;DHT22;7912;51.376;6.126;2023-06-10T04:44:30;22.10;99.20
15625;DHT22;7912;51.376;6.126;2023-06-10T04:46:58;22.10;99.50
15625;DHT22;7912;51.376;6.126;2023-06-10T04:49:25;22.10;99.40
15625;DHT22;7912;51.376;6.126;2023-06-10T04:51:52;22.20;99.40
15625;DHT22;7912;51.376;6.126;2023-06-10T04:54:20;22.20;99.50
15625;DHT22;7912;51.376;6.126;2023-06-10T04:56:47;22.20;99.50
15625;DHT22;7912;51.376;6.126;2023-06-10T04:59:14;22.30;99.60
15625;DHT22;7912;51.376;6.126;2023-06-10T05:01:42;22.30;99.60
15625;DHT22;7912;51.376;6.126;2023-06-10T05:04:12;22.40;99.50
15625;DHT22;7912;51.376;6.126;2023-06-10T05:06:40;22.40;99.70
15625;DHT22;7912;51.376;6.126;2023-06-10T05:09:07;22.50;99.60
15625;DHT22;7912;51.376;6.126;2023-06-10T05:11:34;22.50;99.70
15625;DHT22;7912;51.376;6.126;2023-06-10T05:14:01;22.60;99.70
15625;DHT22;7912;51.376;6.126;2023-06-10T05:16:29;22.60;99.70
15625;DHT22;7912;51.376;6.126;2023-06-10T05:18:56;22.70;99.60
15625;DHT22;7912;51.376;6.126;2023-06-10T05:21:24;22.70;99.50
15625;DHT22;7912;51.376;6.126;2023-06-10T05:23:51;22.70;99.60
15625;DHT22;7912;51.376;6.126;2023-06-10T05:26:19;22.80;99.60
15625;DHT22;7912;51.376;6.126;2023-06-10T05:28:46;22.80;99.60
15625;DHT22;7912;51.376;6.126;2023-06-10T05:31:14;22.90;99.60
15625;DHT22;7912;51.376;6.126;2023-06-10T05:33:42;23.00;99.40
15625;DHT22;7912;51.376;6.126;2023-06-10T05:36:10;23.00;99.30
15625;DHT22;7912;51.376;6.126;2023-06-10T05:42:46;23.10;99.40
15625;DHT22;7912;51.376;6.126;2023-06-10T05:45:14;23.20;99.00
15625;DHT22;7912;51.376;6.126;2023-06-10T05:47:42;23.30;99.10
15625;DHT22;7912;51.376;6.126;2023-06-10T05:50:09;23.30;98.80
15625;DHT22;7912;51.376;6.126;2023-06-10T05:52:37;23.40;98.80
15625;DHT22;7912;51.376;6.126;2023-06-10T05:55:07;23.50;98.60
15625;DHT22;7912;51.376;6.126;2023-06-10T05:57:37;23.60;98.60
15625;DHT22;7912;51.376;6.126;2023-06-10T06:00:05;23.60;98.30
15625;DHT22;7912;51.376;6.126;2023-06-10T06:02:33;23.70;98.20
15625;DHT22;7912;51.376;6.126;2023-06-10T06:05:01;23.70;98.10
15625;DHT22;7912;51.376;6.126;2023-06-10T06:07:28;23.80;97.90
15625;DHT22;7912;51.376;6.126;2023-06-10T06:09:56;23.80;97.70
15625;DHT22;7912;51.376;6.126;2023-06-10T06:12:24;23.90;97.50
15625;DHT22;7912;51.376;6.126;2023-06-10T06:14:51;24.00;97.40
15625;DHT22;7912;51.376;6.126;2023-06-10T06:17:18;24.00;97.20
15625;DHT22;7912;51.376;6.126;2023-06-10T06:19:46;24.10;97.20
15625;DHT22;7912;51.376;6.126;2023-06-10T06:22:14;24.20;97.00
15625;DHT22;7912;51.376;6.126;2023-06-10T06:24:42;24.30;97.00
15625;DHT22;7912;51.376;6.126;2023-06-10T06:27:09;24.40;96.80
15625;DHT22;7912;51.376;6.126;2023-06-10T06:29:37;24.50;96.70
15625;DHT22;7912;51.376;6.126;2023-06-10T06:32:05;24.70;96.80
15625;DHT22;7912;51.376;6.126;2023-06-10T06:34:33;24.80;96.50
15625;DHT22;7912;51.376;6.126;2023-06-10T06:37:01;25.00;96.00
15625;DHT22;7912;51.376;6.126;2023-06-10T06:39:29;25.30;95.70
15625;DHT22;7912;51.376;6.126;2023-06-10T06:41:57;25.50;95.40
15625;DHT22;7912;51.376;6.126;2023-06-10T06:44:24;25.70;95.00
15625;DHT22;7912;51.376;6.126;2023-06-10T06:46:51;25.90;94.30
15625;DHT22;7912;51.376;6.126;2023-06-10T06:49:19;26.20;93.60
15625;DHT22;7912;51.376;6.126;2023-06-10T06:51:46;26.40;93.10
15625;DHT22;7912;51.376;6.126;2023-06-10T06:54:13;26.60;92.60
15625;DHT22;7912;51.376;6.126;2023-06-10T06:56:41;26.70;92.20
15625;DHT22;7912;51.376;6.126;2023-06-10T06:59:08;26.90;91.90
15625;DHT22;7912;51.376;6.126;2023-06-10T07:01:35;27.10;91.60
15625;DHT22;7912;51.376;6.126;2023-06-10T07:04:03;27.30;91.10
15625;DHT22;7912;51.376;6.126;2023-06-10T07:06:30;27.50;90.70
15625;DHT22;7912;51.376;6.126;2023-06-10T07:09:00;27.70;90.60
15625;DHT22;7912;51.376;6.126;2023-06-10T07:11:28;27.90;90.00
15625;DHT22;7912;51.376;6.126;2023-06-10T07:13:56;28.10;88.90
15625;DHT22;7912;51.376;6.126;2023-06-10T07:16:23;28.30;87.50
15625;DHT22;7912;51.376;6.126;2023-06-10T07:18:52;28.50;85.80
15625;DHT22;7912;51.376;6.126;2023-06-10T07:21:20;28.70;84.10
15625;DHT22;7912;51.376;6.126;2023-06-10T07:23:49;28.90;84.00
15625;DHT22;7912;51.376;6.126;2023-06-10T07:26:22;29.10;82.70
15625;DHT22;7912;51.376;6.126;2023-06-10T07:28:49;29.30;81.30
15625;DHT22;7912;51.376;6.126;2023-06-10T07:31:17;29.40;80.90
15625;DHT22;7912;51.376;6.126;2023-06-10T07:33:45;29.60;79.40
15625;DHT22;7912;51.376;6.126;2023-06-10T07:36:13;29.70;78.40
15625;DHT22;7912;51.376;6.126;2023-06-10T07:38:41;29.80;77.80
15625;DHT22;7912;51.376;6.126;2023-06-10T07:41:09;29.90;77.30
15625;DHT22;7912;51.376;6.126;2023-06-10T07:43:37;30.00;76.00
15625;DHT22;7912;51.376;6.126;2023-06-10T07:46:05;30.10;75.10
15625;DHT22;7912;51.376;6.126;2023-06-10T07:51:37;30.40;73.20
15625;DHT22;7912;51.376;6.126;2023-06-10T07:54:04;30.60;73.40
15625;DHT22;7912;51.376;6.126;2023-06-10T07:56:32;30.70;73.00
15625;DHT22;7912;51.376;6.126;2023-06-10T07:58:59;30.80;72.20
15625;DHT22;7912;51.376;6.126;2023-06-10T08:01:27;31.00;72.30
15625;DHT22;7912;51.376;6.126;2023-06-10T08:03:54;31.20;72.10
15625;DHT22;7912;51.376;6.126;2023-06-10T08:06:22;31.30;71.10
15625;DHT22;7912;51.376;6.126;2023-06-10T08:08:49;31.50;70.30
15625;DHT22;7912;51.376;6.126;2023-06-10T08:11:18;31.70;69.40
15625;DHT22;7912;51.376;6.126;2023-06-10T08:13:45;31.90;68.10
15625;DHT22;7912;51.376;6.126;2023-06-10T08:16:13;32.00;67.50
15625;DHT22;7912;51.376;6.126;2023-06-10T08:18:40;32.10;66.80
15625;DHT22;7912;51.376;6.126;2023-06-10T08:21:08;32.20;66.40
15625;DHT22;7912;51.376;6.126;2023-06-10T08:23:35;32.30;66.10
15625;DHT22;7912;51.376;6.126;2023-06-10T08:26:02;32.40;65.60
15625;DHT22;7912;51.376;6.126;2023-06-10T08:28:30;32.50;64.70
15625;DHT22;7912;51.376;6.126;2023-06-10T08:30:57;32.60;64.70
15625;DHT22;7912;51.376;6.126;2023-06-10T08:33:24;32.70;64.40
15625;DHT22;7912;51.376;6.126;2023-06-10T08:35:52;32.80;62.90
15625;DHT22;7912;51.376;6.126;2023-06-10T08:38:19;33.00;62.20
15625;DHT22;7912;51.376;6.126;2023-06-10T08:40:47;33.00;61.70
15625;DHT22;7912;51.376;6.126;2023-06-10T08:43:26;33.10;61.70
15625;DHT22;7912;51.376;6.126;2023-06-10T08:46:00;33.20;60.50
15625;DHT22;7912;51.376;6.126;2023-06-10T08:48:29;33.40;60.60
15625;DHT22;7912;51.376;6.126;2023-06-10T08:50:58;33.50;60.90
15625;DHT22;7912;51.376;6.126;2023-06-10T08:53:28;33.60;60.40
15625;DHT22;7912;51.376;6.126;2023-06-10T08:56:01;33.70;59.60
15625;DHT22;7912;51.376;6.126;2023-06-10T08:58:32;33.80;59.50
15625;DHT22;7912;51.376;6.126;2023-06-10T09:01:02;33.90;59.00
15625;DHT22;7912;51.376;6.126;2023-06-10T09:03:30;34.00;59.00
15625;DHT22;7912;51.376;6.126;2023-06-10T09:05:58;34.10;59.50
15625;DHT22;7912;51.376;6.126;2023-06-10T09:08:26;34.20;59.10
15625;DHT22;7912;51.376;6.126;2023-06-10T09:10:54;34.40;58.30
15625;DHT22;7912;51.376;6.126;2023-06-10T09:13:24;34.50;57.70
15625;DHT22;7912;51.376;6.126;2023-06-10T09:15:51;34.70;57.30
15625;DHT22;7912;51.376;6.126;2023-06-10T09:18:19;34.80;57.10
15625;DHT22;7912;51.376;6.126;2023-06-10T09:20:47;34.80;57.10
15625;DHT22;7912;51.376;6.126;2023-06-10T09:23:15;34.90;56.80
15625;DHT22;7912;51.376;6.126;2023-06-10T09:25:44;34.90;56.30
15625;DHT22;7912;51.376;6.126;2023-06-10T09:28:15;35.00;56.10
15625;DHT22;7912;51.376;6.126;2023-06-10T09:30:42;35.10;55.50
15625;DHT22;7912;51.376;6.126;2023-06-10T09:33:12;35.20;55.80
15625;DHT22;7912;51.376;6.126;2023-06-10T09:35:51;35.20;55.90
15625;DHT22;7912;51.376;6.126;2023-06-10T09:38:22;35.30;55.40
15625;DHT22;7912;51.376;6.126;2023-06-10T09:40:51;35.30;55.00
15625;DHT22;7912;51.376;6.126;2023-06-10T09:43:20;35.40;55.20
15625;DHT22;7912;51.376;6.126;2023-06-10T09:45:51;35.40;55.20
15625;DHT22;7912;51.376;6.126;2023-06-10T09:48:24;35.30;54.70
15625;DHT22;7912;51.376;6.126;2023-06-10T09:50:56;35.40;55.20
15625;DHT22;7912;51.376;6.126;2023-06-10T09:53:24;35.50;55.40
15625;DHT22;7912;51.376;6.126;2023-06-10T09:55:52;35.50;55.20
15625;DHT22;7912;51.376;6.126;2023-06-10T09:58:34;35.60;54.80
15625;DHT22;7912;51.376;6.126;2023-06-10T10:01:16;35.70;54.50
15625;DHT22;7912;51.376;6.126;2023-06-10T10:03:51;35.90;54.80
15625;DHT22;7912;51.376;6.126;2023-06-10T10:06:19;35.90;54.20
15625;DHT22;7912;51.376;6.126;2023-06-10T10:08:51;36.10;54.10
15625;DHT22;7912;51.376;6.126;2023-06-10T10:11:20;36.20;53.30
15625;DHT22;7912;51.376;6.126;2023-06-10T10:13:53;36.20;53.30
15625;DHT22;7912;51.376;6.126;2023-06-10T10:19:58;36.30;53.30
15625;DHT22;7912;51.376;6.126;2023-06-10T10:22:37;36.40;53.50
15625;DHT22;7912;51.376;6.126;2023-06-10T10:25:16;36.50;53.50
15625;DHT22;7912;51.376;6.126;2023-06-10T10:28:12;36.60;52.60
15625;DHT22;7912;51.376;6.126;2023-06-10T10:30:52;36.70;52.00
15625;DHT22;7912;51.376;6.126;2023-06-10T10:33:45;36.70;52.00
15625;DHT22;7912;51.376;6.126;2023-06-10T10:36:21;36.80;52.30
15625;DHT22;7912;51.376;6.126;2023-06-10T10:39:08;36.80;52.30
15625;DHT22;7912;51.376;6.126;2023-06-10T10:41:37;36.80;52.00
15625;DHT22;7912;51.376;6.126;2023-06-10T10:44:08;36.90;51.70
15625;DHT22;7912;51.376;6.126;2023-06-10T10:46:50;36.90;51.40
15625;DHT22;7912;51.376;6.126;2023-06-10T10:49:18;36.80;51.40
15625;DHT22;7912;51.376;6.126;2023-06-10T10:52:00;36.80;51.30
15625;DHT22;7912;51.376;6.126;2023-06-10T10:54:33;36.70;50.90
15625;DHT22;7912;51.376;6.126;2023-06-10T10:57:23;36.70;51.00
15625;DHT22;7912;51.376;6.126;2023-06-10T10:59:53;36.70;50.80
15625;DHT22;7912;51.376;6.126;2023-06-10T11:02:41;36.80;50.90
15625;DHT22;7912;51.376;6.126;2023-06-10T11:05:14;36.80;50.70
15625;DHT22;7912;51.376;6.126;2023-06-10T11:07:53;36.90;51.10
15625;DHT22;7912;51.376;6.126;2023-06-10T11:10:32;36.90;51.40
15625;DHT22;7912;51.376;6.126;2023-06-10T11:13:09;37.00;50.70
15625;DHT22;7912;51.376;6.126;2023-06-10T11:15:45;37.10;50.10
15625;DHT22;7912;51.376;6.126;2023-06-10T11:18:28;37.10;49.80
15625;DHT22;7912;51.376;6.126;2023-06-10T11:21:00;37.20;50.10
15625;DHT22;7912;51.376;6.126;2023-06-10T11:31:48;37.30;49.80
15625;DHT22;7912;51.376;6.126;2023-06-10T11:34:23;37.30;49.50
15625;DHT22;7912;51.376;6.126;2023-06-10T11:36:54;37.30;49.50
15625;DHT22;7912;51.376;6.126;2023-06-10T11:39:22;37.40;49.50
15625;DHT22;7912;51.376;6.126;2023-06-10T11:41:51;37.60;49.30
15625;DHT22;7912;51.376;6.126;2023-06-10T11:44:19;37.60;50.10
15625;DHT22;7912;51.376;6.126;2023-06-10T11:46:50;37.80;49.90
15625;DHT22;7912;51.376;6.126;2023-06-10T11:49:20;38.00;49.40
15625;DHT22;7912;51.376;6.126;2023-06-10T11:51:47;38.20;49.00
15625;DHT22;7912;51.376;6.126;2023-06-10T11:54:18;38.30;48.80
15625;DHT22;7912;51.376;6.126;2023-06-10T11:56:46;38.40;48.30
15625;DHT22;7912;51.376;6.126;2023-06-10T11:59:14;38.40;47.70
15625;DHT22;7912;51.376;6.126;2023-06-10T12:01:43;38.40;47.60
15625;DHT22;7912;51.376;6.126;2023-06-10T12:04:13;38.40;47.40
15625;DHT22;7912;51.376;6.126;2023-06-10T12:06:50;38.40;47.50
15625;DHT22;7912;51.376;6.126;2023-06-10T12:09:27;38.30;47.60
15625;DHT22;7912;51.376;6.126;2023-06-10T12:12:03;38.30;47.80
15625;DHT22;7912;51.376;6.126;2023-06-10T12:14:54;38.40;47.30
15625;DHT22;7912;51.376;6.126;2023-06-10T12:20:03;38.40;47.70
15625;DHT22;7912;51.376;6.126;2023-06-10T12:22:43;38.60;47.80
15625;DHT22;7912;51.376;6.126;2023-06-10T12:25:11;38.70;47.60
15625;DHT22;7912;51.376;6.126;2023-06-10T12:27:53;39.00;47.10
15625;DHT22;7912;51.376;6.126;2023-06-10T12:30:24;39.20;46.40
15625;DHT22;7912;51.376;6.126;2023-06-10T12:32:56;39.30;46.60
15625;DHT22;7912;51.376;6.126;2023-06-10T12:35:27;39.30;46.50
15625;DHT22;7912;51.376;6.126;2023-06-10T12:38:03;39.40;45.80
15625;DHT22;7912;51.376;6.126;2023-06-10T12:40:36;39.40;45.90
15625;DHT22;7912;51.376;6.126;2023-06-10T12:43:07;39.40;46.20
15625;DHT22;7912;51.376;6.126;2023-06-10T12:45:36;39.50;46.20
15625;DHT22;7912;51.376;6.126;2023-06-10T12:48:22;39.60;46.00
15625;DHT22;7912;51.376;6.126;2023-06-10T12:50:55;39.70;45.30
15625;DHT22;7912;51.376;6.126;2023-06-10T12:53:24;39.80;45.40
15625;DHT22;7912;51.376;6.126;2023-06-10T12:55:55;39.80;44.60
15625;DHT22;7912;51.376;6.126;2023-06-10T12:58:24;39.70;43.90
15625;DHT22;7912;51.376;6.126;2023-06-10T13:00:52;39.50;44.10
15625;DHT22;7912;51.376;6.126;2023-06-10T13:03:20;39.30;44.50
15625;DHT22;7912;51.376;6.126;2023-06-10T13:05:47;39.20;44.40
15625;DHT22;7912;51.376;6.126;2023-06-10T13:08:15;39.10;44.50
15625;DHT22;7912;51.376;6.126;2023-06-10T13:10:43;39.10;45.00
15625;DHT22;7912;51.376;6.126;2023-06-10T13:13:10;39.20;44.70
15625;DHT22;7912;51.376;6.126;2023-06-10T13:15:37;39.30;44.80
15625;DHT22;7912;51.376;6.126;2023-06-10T13:18:09;39.40;44.80
15625;DHT22;7912;51.376;6.126;2023-06-10T13:20:37;39.60;45.00
15625;DHT22;7912;51.376;6.126;2023-06-10T13:23:05;39.80;44.60
15625;DHT22;7912;51.376;6.126;2023-06-10T13:25:32;40.00;44.60
15625;DHT22;7912;51.376;6.126;2023-06-10T13:27:59;40.30;44.50
15625;DHT22;7912;51.376;6.126;2023-06-10T13:30:28;40.50;44.80
15625;DHT22;7912;51.376;6.126;2023-06-10T13:32:55;40.70;44.30
15625;DHT22;7912;51.376;6.126;2023-06-10T13:35:25;41.00;43.50
15625;DHT22;7912;51.376;6.126;2023-06-10T13:37:53;41.00;43.20
15625;DHT22;7912;51.376;6.126;2023-06-10T13:40:20;40.90;42.90
15625;DHT22;7912;51.376;6.126;2023-06-10T13:42:47;40.70;42.50
15625;DHT22;7912;51.376;6.126;2023-06-10T13:45:17;40.40;43.10
15625;DHT22;7912;51.376;6.126;2023-06-10T13:47:45;40.20;43.60
15625;DHT22;7912;51.376;6.126;2023-06-10T13:50:12;40.10;43.60
15625;DHT22;7912;51.376;6.126;2023-06-10T13:52:40;40.10;43.60
15625;DHT22;7912;51.376;6.126;2023-06-10T13:55:08;40.10;43.80
15625;DHT22;7912;51.376;6.126;2023-06-10T13:57:36;40.00;43.80
15625;DHT22;7912;51.376;6.126;2023-06-10T14:00:04;40.10;44.10
15625;DHT22;7912;51.376;6.126;2023-06-10T14:02:32;40.10;44.10
15625;DHT22;7912;51.376;6.126;2023-06-10T14:05:00;40.10;43.80
15625;DHT22;7912;51.376;6.126;2023-06-10T14:07:28;40.00;43.20
15625;DHT22;7912;51.376;6.126;2023-06-10T14:09:55;39.90;43.50
15625;DHT22;7912;51.376;6.126;2023-06-10T14:12:23;39.60;43.60
15625;DHT22;7912;51.376;6.126;2023-06-10T14:14:50;39.30;44.10
15625;DHT22;7912;51.376;6.126;2023-06-10T14:17:17;39.20;44.60
15625;DHT22;7912;51.376;6.126;2023-06-10T14:19:45;39.20;44.40
15625;DHT22;7912;51.376;6.126;2023-06-10T14:22:12;39.30;44.30
15625;DHT22;7912;51.376;6.126;2023-06-10T14:24:40;39.40;44.50
15625;DHT22;7912;51.376;6.126;2023-06-10T14:27:07;39.60;44.40
15625;DHT22;7912;51.376;6.126;2023-06-10T14:29:34;39.80;44.40
15625;DHT22;7912;51.376;6.126;2023-06-10T14:32:02;40.10;44.50
15625;DHT22;7912;51.376;6.126;2023-06-10T14:34:34;40.40;44.50
15625;DHT22;7912;51.376;6.126;2023-06-10T14:37:02;40.70;44.00
15625;DHT22;7912;51.376;6.126;2023-06-10T14:39:34;41.00;43.70
15625;DHT22;7912;51.376;6.126;2023-06-10T14:42:04;41.10;43.40
15625;DHT22;7912;51.376;6.126;2023-06-10T14:44:32;41.10;42.90
15625;DHT22;7912;51.376;6.126;2023-06-10T14:47:00;41.00;42.80
15625;DHT22;7912;51.376;6.126;2023-06-10T14:49:27;40.80;43.10
15625;DHT22;7912;51.376;6.126;2023-06-10T14:51:57;40.60;42.90
15625;DHT22;7912;51.376;6.126;2023-06-10T14:54:24;40.50;43.20
15625;DHT22;7912;51.376;6.126;2023-06-10T14:56:52;40.60;43.40
15625;DHT22;7912;51.376;6.126;2023-06-10T14:59:19;40.60;43.50
15625;DHT22;7912;51.376;6.126;2023-06-10T15:01:50;40.80;43.70
15625;DHT22;7912;51.376;6.126;2023-06-10T15:04:17;41.00;43.50
15625;DHT22;7912;51.376;6.126;2023-06-10T15:06:49;41.20;42.90
15625;DHT22;7912;51.376;6.126;2023-06-10T15:09:17;41.30;42.70
15625;DHT22;7912;51.376;6.126;2023-06-10T15:11:45;41.30;42.60
15625;DHT22;7912;51.376;6.126;2023-06-10T15:14:12;41.10;42.30
15625;DHT22;7912;51.376;6.126;2023-06-10T15:16:43;40.90;42.40
15625;DHT22;7912;51.376;6.126;2023-06-10T15:19:14;40.70;42.60
15625;DHT22;7912;51.376;6.126;2023-06-10T15:21:41;40.40;42.80
15625;DHT22;7912;51.376;6.126;2023-06-10T15:24:09;40.20;43.20
15625;DHT22;7912;51.376;6.126;2023-06-10T15:26:37;40.10;43.40
15625;DHT22;7912;51.376;6.126;2023-06-10T15:29:04;40.10;43.30
15625;DHT22;7912;51.376;6.126;2023-06-10T15:31:33;40.00;43.10
15625;DHT22;7912;51.376;6.126;2023-06-10T15:34:00;39.90;43.10
15625;DHT22;7912;51.376;6.126;2023-06-10T15:36:28;39.70;43.00
15625;DHT22;7912;51.376;6.126;2023-06-10T15:39:00;39.40;43.00
15625;DHT22;7912;51.376;6.126;2023-06-10T15:41:30;39.10;43.20
15625;DHT22;7912;51.376;6.126;2023-06-10T15:43:57;38.80;43.80
15625;DHT22;7912;51.376;6.126;2023-06-10T15:46:30;38.60;44.30
15625;DHT22;7912;51.376;6.126;2023-06-10T15:48:58;38.40;44.40
15625;DHT22;7912;51.376;6.126;2023-06-10T15:51:25;38.40;44.40
15625;DHT22;7912;51.376;6.126;2023-06-10T15:53:53;38.40;44.50
15625;DHT22;7912;51.376;6.126;2023-06-10T15:56:21;38.50;44.60
15625;DHT22;7912;51.376;6.126;2023-06-10T15:58:49;38.50;44.60
15625;DHT22;7912;51.376;6.126;2023-06-10T16:01:17;38.60;44.50
15625;DHT22;7912;51.376;6.126;2023-06-10T16:03:44;38.50;44.30
15625;DHT22;7912;51.376;6.126;2023-06-10T16:06:18;38.30;44.40
15625;DHT22;7912;51.376;6.126;2023-06-10T16:08:45;38.00;44.70
15625;DHT22;7912;51.376;6.126;2023-06-10T16:11:13;37.70;44.70
15625;DHT22;7912;51.376;6.126;2023-06-10T16:13:41;37.50;45.00
15625;DHT22;7912;51.376;6.126;2023-06-10T16:16:08;37.20;45.40
15625;DHT22;7912;51.376;6.126;2023-06-10T16:18:36;36.90;45.80
15625;DHT22;7912;51.376;6.126;2023-06-10T16:21:03;36.70;46.00
15625;DHT22;7912;51.376;6.126;2023-06-10T16:23:31;36.50;46.50
15625;DHT22;7912;51.376;6.126;2023-06-10T16:25:59;36.20;46.60
15625;DHT22;7912;51.376;6.126;2023-06-10T16:28:26;36.00;46.80